Time;durP1;ratioP1;P1;durP2;ratioP2;P2;SDS_P1;SDS_P2;PMS_P1;PMS_P2;Temp;Humidity;BMP_temperature;BMP_pressure;BME280_temperature;BME280_humidity;BME280_pressure;Samples;Min_cycle;Max_cycle;Signal;HPM_P1;HPM_P2
2022/08/06 00:00:26;;;;;;;;;;;;;;;19.31;55.63;97407.72;30001;985;1873;-55
2022/08/06 00:00:58;;;;;;;;;;;;;;;19.28;55.77;97408.41;30001;963;1901;-54
2022/08/06 00:01:29;;;;;;;;;;;;;;;19.22;56.13;97410.53;30001;982;1882;-55
2022/08/06 00:02:00;;;;;;;;;;;;;;;19.20;56.07;97409.25;30001;982;1882;-61
2022/08/06 00:02:31;;;;;;;;;;;;;;;19.20;55.91;97406.50;30001;983;1867;-53
2022/08/06 00:03:03;;;;;;;;;;;;;;;19.19;56.19;97402.97;30001;983;1872;-53
2022/08/06 00:03:34;;;;;;;;;;;;;;;19.17;55.99;97405.25;30001;983;1868;-52
2022/08/06 00:04:04;;;;;;;;;;;;;;;19.21;56.25;97403.44;30001;983;1859;-52
2022/08/06 00:04:35;;;;;;;;;;;;;;;19.22;55.82;97402.28;30001;963;1901;-53
2022/08/06 00:05:08;;;;;;;;;;;;;;;19.22;55.83;97399.53;30001;983;1881;-58
2022/08/06 00:05:39;;;;;;;;;;;;;;;19.19;56.27;97391.94;30001;983;1881;-56
2022/08/06 00:06:10;;;;;;;;;;;;;;;19.15;56.46;97407.50;30001;983;1881;-55
2022/08/06 00:06:41;;;;;;;;;;;;;;;19.11;56.46;97398.31;30001;982;1881;-58
2022/08/06 00:07:12;;;;;;;;;;;;;;;19.09;56.78;97398.66;30001;982;1881;-56
2022/08/06 00:07:43;;;;;;;;;;;;;;;19.07;56.65;97400.13;30001;969;1906;-54
2022/08/06 00:08:17;;;;;;;;;;;;;;;19.06;56.81;97407.56;30001;982;1881;-53
2022/08/06 00:08:49;;;;;;;;;;;;;;;19.08;56.59;97402.53;30001;982;1868;-54
2022/08/06 00:09:20;;;;;;;;;;;;;;;19.07;56.65;97405.62;30001;982;1873;-55
2022/08/06 00:09:53;;;;;;;;;;;;;;;19.03;57.00;97399.22;30001;983;1881;-55
2022/08/06 00:10:23;;;;;;;;;;;;;;;19.03;56.99;97399.22;30001;983;1881;-54
2022/08/06 00:10:54;;;;;;;;;;;;;;;19.02;56.67;97398.41;30001;983;1881;-54
2022/08/06 00:11:25;;;;;;;;;;;;;;;18.99;56.88;97399.09;30001;983;1881;-56
2022/08/06 00:11:59;;;;;;;;;;;;;;;18.98;57.11;97397.47;30001;983;1881;-53
2022/08/06 00:12:31;;;;;;;;;;;;;;;18.96;57.08;97405.25;30001;983;1881;-57
2022/08/06 00:13:02;;;;;;;;;;;;;;;18.94;57.57;97398.47;30001;983;1881;-56
2022/08/06 00:13:34;;;;;;;;;;;;;;;18.91;57.52;97408.19;30001;983;1881;-55
2022/08/06 00:14:05;;;;;;;;;;;;;;;18.90;57.62;97412.06;30001;982;1868;-55
2022/08/06 00:14:35;;;;;;;;;;;;;;;18.88;57.65;97408.06;30001;964;1890;-56
2022/08/06 00:15:07;;;;;;;;;;;;;;;18.87;58.18;97406.44;30001;982;1881;-55
2022/08/06 00:15:38;;;;;;;;;;;;;;;18.88;58.22;97408.06;30001;982;1881;-55
2022/08/06 00:16:10;;;;;;;;;;;;;;;18.86;58.21;97407.56;30001;982;1881;-54
2022/08/06 00:16:41;;;;;;;;;;;;;;;18.86;58.32;97410.31;30001;982;1882;-54
2022/08/06 00:17:13;;;;;;;;;;;;;;;18.85;58.46;97403.22;30001;982;1882;-55
2022/08/06 00:17:44;;;;;;;;;;;;;;;18.84;58.50;97409.84;30001;980;1881;-58
2022/08/06 00:18:15;;;;;;;;;;;;;;;18.84;58.33;97413.41;30001;983;1881;-55
2022/08/06 00:18:46;;;;;;;;;;;;;;;18.85;58.61;97414.22;30001;983;1868;-56
2022/08/06 00:19:17;;;;;;;;;;;;;;;18.84;58.43;97412.59;30001;983;1872;-55
2022/08/06 00:19:48;;;;;;;;;;;;;;;18.84;58.80;97407.09;30001;983;1881;-57
2022/08/06 00:20:19;;;;;;;;;;;;;;;18.82;58.78;97406.62;30001;983;1881;-57
2022/08/06 00:20:50;;;;;;;;;;;;;;;18.79;58.89;97404.53;30001;983;1881;-56
2022/08/06 00:21:21;;;;;;;;;;;;;;;18.80;59.08;97408.91;30001;983;1881;-55
2022/08/06 00:21:52;;;;;;;;;;;;;;;18.82;58.34;97406.62;30001;982;1881;-53
2022/08/06 00:22:23;;;;;;;;;;;;;;;18.84;57.97;97405.16;30001;982;1881;-55
2022/08/06 00:22:54;;;;;;;;;;;;;;;18.86;57.90;97404.81;30002;788;1016;-55
2022/08/06 00:23:27;;;;;;;;;;;;;;;18.84;57.87;97405.16;30001;982;1868;-57
2022/08/06 00:23:58;;;;;;;;;;;;;;;18.83;58.28;97406.28;30001;982;1872;-55
2022/08/06 00:24:31;;;;;;;;;;;;;;;18.82;58.04;97399.19;30001;982;1882;-56
2022/08/06 00:25:01;;;;;;;;;;;;;;;18.83;58.49;97408.25;30001;983;1880;-54
2022/08/06 00:25:32;;;;;;;;;;;;;;;18.83;58.37;97403.53;30001;983;1881;-54
2022/08/06 00:26:03;;;;;;;;;;;;;;;18.83;58.20;97400.00;30001;983;1881;-56
2022/08/06 00:26:37;;;;;;;;;;;;;;;18.86;57.69;97399.31;30001;983;1881;-57
2022/08/06 00:27:08;;;;;;;;;;;;;;;18.92;57.10;97403.50;30001;983;1881;-59
2022/08/06 00:27:39;;;;;;;;;;;;;;;18.94;57.17;97401.22;30001;983;1881;-55
2022/08/06 00:28:10;;;;;;;;;;;;;;;18.97;56.62;97406.06;30001;983;1881;-55
2022/08/06 00:28:41;;;;;;;;;;;;;;;18.96;56.79;97399.75;30001;983;1868;-56
2022/08/06 00:29:12;;;;;;;;;;;;;;;18.99;56.72;97396.34;30001;982;1872;-56
2022/08/06 00:29:43;;;;;;;;;;;;;;;19.01;56.91;97396.81;30001;982;1881;-55
2022/08/06 00:30:15;;;;;;;;;;;;;;;19.01;56.73;97407.81;30001;982;1816;-57
2022/08/06 00:30:45;;;;;;;;;;;;;;;19.08;56.31;97401.75;30001;982;1881;-54
2022/08/06 00:31:16;;;;;;;;;;;;;;;19.07;55.92;97402.87;30001;982;1881;-55
2022/08/06 00:31:47;;;;;;;;;;;;;;;19.10;55.92;97407.72;30001;983;1881;-54
2022/08/06 00:32:18;;;;;;;;;;;;;;;19.15;55.94;97410.28;30001;983;1881;-55
2022/08/06 00:32:49;;;;;;;;;;;;;;;19.14;56.20;97405.09;30001;983;1881;-55
2022/08/06 00:33:20;;;;;;;;;;;;;;;19.15;55.94;97402.00;30001;983;1881;-54
2022/08/06 00:33:52;;;;;;;;;;;;;;;19.15;55.56;97406.72;30001;983;1868;-55
2022/08/06 00:34:23;;;;;;;;;;;;;;;19.16;55.89;97408.31;30001;983;1872;-54
2022/08/06 00:34:54;;;;;;;;;;;;;;;19.14;55.46;97405.91;30001;983;1881;-57
2022/08/06 00:35:25;;;;;;;;;;;;;;;19.15;55.52;97399.25;30001;983;1881;-56
2022/08/06 00:35:57;;;;;;;;;;;;;;;19.14;55.64;97405.09;30001;983;1881;-56
2022/08/06 00:36:29;;;;;;;;;;;;;;;19.15;55.59;97407.50;30001;983;1881;-59
2022/08/06 00:36:59;;;;;;;;;;;;;;;19.23;55.15;97403.09;30001;982;1881;-55
2022/08/06 00:37:32;;;;;;;;;;;;;;;19.24;55.04;97408.25;30001;982;1881;-58
2022/08/06 00:38:03;;;;;;;;;;;;;;;19.20;55.46;97410.06;30001;982;1881;-57
2022/08/06 00:38:34;;;;;;;;;;;;;;;19.17;55.30;97404.44;30001;982;1881;-57
2022/08/06 00:39:07;;;;;;;;;;;;;;;19.12;55.54;97408.19;30001;982;1869;-55
2022/08/06 00:39:38;;;;;;;;;;;;;;;19.09;55.85;97397.84;30002;983;1872;-55
2022/08/06 00:40:11;;;;;;;;;;;;;;;19.07;56.19;97397.38;30002;983;1881;-56
2022/08/06 00:40:42;;;;;;;;;;;;;;;19.03;55.80;97399.22;30002;983;1790;-57
2022/08/06 00:41:14;;;;;;;;;;;;;;;18.98;55.86;97400.22;30002;983;1881;-54
2022/08/06 00:41:45;;;;;;;;;;;;;;;18.95;56.21;97403.63;30002;983;1881;-58
2022/08/06 00:42:19;;;;;;;;;;;;;;;18.95;56.50;97409.13;30002;986;1881;-54
2022/08/06 00:42:51;;;;;;;;;;;;;;;18.95;56.65;97402.84;30002;983;1809;-54
2022/08/06 00:43:22;;;;;;;;;;;;;;;18.92;56.97;97403.50;30002;983;1881;-56
2022/08/06 00:43:55;;;;;;;;;;;;;;;18.89;56.65;97395.91;30002;983;1881;-57
2022/08/06 00:44:27;;;;;;;;;;;;;;;18.88;56.67;97408.06;30002;982;1868;-56
2022/08/06 00:45:00;;;;;;;;;;;;;;;18.87;56.71;97406.44;30002;982;1872;-55
2022/08/06 00:45:32;;;;;;;;;;;;;;;18.86;57.05;97402.87;30002;982;1881;-60
2022/08/06 00:46:03;;;;;;;;;;;;;;;18.94;56.14;97401.22;30002;982;1881;-58
2022/08/06 00:46:34;;;;;;;;;;;;;;;18.94;56.20;97406.72;30001;982;1881;-54
2022/08/06 00:47:06;;;;;;;;;;;;;;;18.91;56.07;97401.87;30002;983;1881;-56
2022/08/06 00:47:37;;;;;;;;;;;;;;;18.91;56.17;97399.12;30002;983;1881;-57
2022/08/06 00:48:08;;;;;;;;;;;;;;;18.96;55.69;97401.69;30002;962;1902;-56
2022/08/06 00:48:39;;;;;;;;;;;;;;;18.96;55.58;97409.94;30002;983;1881;-56
2022/08/06 00:49:11;;;;;;;;;;;;;;;18.92;54.96;97398.00;30002;983;1881;-55
2022/08/06 00:49:43;;;;;;;;;;;;;;;18.88;55.55;97408.84;30002;983;1868;-55
2022/08/06 00:50:14;;;;;;;;;;;;;;;18.89;55.88;97407.72;30002;983;1872;-54
2022/08/06 00:50:44;;;;;;;;;;;;;;;18.98;54.89;97402.16;30002;983;1881;-53
2022/08/06 00:51:16;;;;;;;;;;;;;;;19.01;54.87;97409.75;30002;983;1881;-53
2022/08/06 00:51:47;;;;;;;;;;;;;;;18.98;55.22;97411.22;30002;982;1881;-56
2022/08/06 00:52:18;;;;;;;;;;;;;;;19.00;55.13;97416.38;30002;982;1881;-54
2022/08/06 00:52:49;;;;;;;;;;;;;;;18.99;55.43;97414.78;30002;982;1881;-55
2022/08/06 00:53:22;;;;;;;;;;;;;;;18.95;55.35;97414.63;30002;982;1881;-56
2022/08/06 00:53:57;;;;;;;;;;;;;;;18.92;55.67;97409.00;30002;982;1881;-55
2022/08/06 00:54:29;;;;;;;;;;;;;;;18.92;55.82;97411.75;30002;983;1867;-55
2022/08/06 00:55:02;;;;;;;;;;;;;;;18.90;56.03;97416.78;30002;983;1872;-58
2022/08/06 00:55:34;;;;;;;;;;;;;;;18.95;55.33;97416.56;30002;983;1881;-54
2022/08/06 00:56:06;;;;;;;;;;;;;;;18.95;55.37;97419.31;30002;979;1881;-56
2022/08/06 00:56:37;;;;;;;;;;;;;;;18.94;55.80;97410.28;30002;983;1881;-56
2022/08/06 00:57:08;;;;;;;;;;;;;;;18.92;55.66;97415.31;30002;983;1881;-54
2022/08/06 00:57:39;;;;;;;;;;;;;;;18.93;55.64;97422.41;30002;983;1881;-52
2022/08/06 00:58:10;;;;;;;;;;;;;;;18.89;55.41;97420.66;30002;983;1881;-55
2022/08/06 00:58:41;;;;;;;;;;;;;;;18.86;55.37;97418.56;30002;983;1881;-55
2022/08/06 00:59:12;;;;;;;;;;;;;;;18.84;55.92;97423.59;30002;983;1881;-54
2022/08/06 00:59:43;;;;;;;;;;;;;;;18.82;55.99;97425.87;30002;982;1868;-55
2022/08/06 01:00:17;;;;;;;;;;;;;;;18.81;56.26;97424.25;30002;982;1873;-57
2022/08/06 01:00:48;;;;;;;;;;;;;;;18.83;56.06;97422.78;30002;982;1881;-56
2022/08/06 01:01:19;;;;;;;;;;;;;;;18.83;55.96;97422.78;30003;786;1016;-55
2022/08/06 01:01:50;;;;;;;;;;;;;;;18.83;55.81;97427.50;30002;983;1881;-54
2022/08/06 01:02:24;;;;;;;;;;;;;;;18.89;55.01;97426.16;30002;983;1881;-54
2022/08/06 01:02:54;;;;;;;;;;;;;;;18.93;54.51;97416.09;30002;983;1799;-58
2022/08/06 01:03:25;;;;;;;;;;;;;;;18.94;54.43;97424.03;30002;983;1881;-57
2022/08/06 01:03:56;;;;;;;;;;;;;;;18.91;54.60;97416.44;30002;983;1881;-56
2022/08/06 01:04:27;;;;;;;;;;;;;;;18.93;54.94;97422.41;30002;983;1881;-56
2022/08/06 01:04:58;;;;;;;;;;;;;;;19.00;54.16;97417.19;30002;983;1868;-54
2022/08/06 01:05:28;;;;;;;;;;;;;;;18.99;54.40;97421.09;30002;983;1872;-55
2022/08/06 01:06:03;;;;;;;;;;;;;;;18.96;54.35;97423.69;30002;982;1881;-54
2022/08/06 01:06:35;;;;;;;;;;;;;;;18.91;55.25;97435.69;30002;982;1881;-56
2022/08/06 01:07:05;;;;;;;;;;;;;;;18.91;55.11;97426.63;30002;982;1881;-54
2022/08/06 01:07:36;;;;;;;;;;;;;;;18.98;53.95;97430.47;30002;982;1868;-56
2022/08/06 01:08:08;;;;;;;;;;;;;;;18.95;53.92;97428.38;30002;966;1889;-56
2022/08/06 01:08:39;;;;;;;;;;;;;;;19.07;53.46;97422.94;30002;982;1882;-54
2022/08/06 01:09:13;;;;;;;;;;;;;;;19.10;53.22;97421.47;30002;982;1882;-53
2022/08/06 01:09:44;;;;;;;;;;;;;;;19.02;53.10;97427.84;30002;983;1881;-53
2022/08/06 01:10:15;;;;;;;;;;;;;;;18.95;53.61;97424.84;30002;983;1868;-54
2022/08/06 01:10:49;;;;;;;;;;;;;;;18.92;53.87;97422.75;30002;983;1872;-56
2022/08/06 01:11:20;;;;;;;;;;;;;;;18.88;53.95;97424.53;30002;983;1881;-53
2022/08/06 01:11:51;;;;;;;;;;;;;;;18.87;54.27;97429.25;30002;983;1868;-64
2022/08/06 01:12:22;;;;;;;;;;;;;;;18.93;53.98;97421.59;30002;983;1872;-56
2022/08/06 01:12:54;;;;;;;;;;;;;;;18.91;54.02;97430.19;30002;983;1881;-57
2022/08/06 01:13:25;;;;;;;;;;;;;;;18.90;53.95;97423.06;30002;983;1881;-55
2022/08/06 01:13:55;;;;;;;;;;;;;;;18.88;54.24;97425.34;30002;982;1881;-57
2022/08/06 01:14:27;;;;;;;;;;;;;;;18.93;53.53;97421.59;30002;982;1881;-52
2022/08/06 01:14:58;;;;;;;;;;;;;;;18.98;53.23;97418.66;30002;982;1881;-55
2022/08/06 01:15:29;;;;;;;;;;;;;;;18.96;53.47;97426.44;30002;982;1881;-54
2022/08/06 01:16:08;;;;;;;;;;;;;;;18.94;54.04;97425.97;30002;982;1881;-54
2022/08/06 01:16:49;;;;;;;;;;;;;;;18.89;53.95;97437.16;30002;982;1882;-55
2022/08/06 01:17:28;;;;;;;;;;;;;;;18.87;53.90;97428.44;30002;983;1867;-55
2022/08/06 01:18:04;;;;;;;;;;;;;;;18.92;53.03;97425.50;30002;983;1767;-56
2022/08/06 01:18:55;;;;;;;;;;;;;;;18.92;53.34;97431.00;30002;983;1881;-55
2022/08/06 01:19:37;;;;;;;;;;;;;;;18.91;53.45;97430.19;30002;983;1877;-56
2022/08/06 01:20:20;;;;;;;;;;;;;;;18.92;53.34;97437.31;30002;961;1903;-54
2022/08/06 01:21:22;;;;;;;;;;;;;;;18.87;53.99;97439.44;30002;983;1881;-57
2022/08/06 01:22:04;;;;;;;;;;;;;;;18.88;52.86;97430.03;30002;982;1881;-55
2022/08/06 01:22:54;;;;;;;;;;;;;;;18.84;53.24;97432.66;30002;982;1868;-54
2022/08/06 01:23:34;;;;;;;;;;;;;;;18.79;53.44;97437.53;30002;982;1864;-56
2022/08/06 01:24:23;;;;;;;;;;;;;;;18.73;53.83;97429.47;30002;982;1881;-55
2022/08/06 01:25:10;;;;;;;;;;;;;;;18.74;54.07;97428.34;30002;983;1881;-55
2022/08/06 01:26:01;;;;;;;;;;;;;;;18.74;54.19;97436.59;30002;983;1881;-57
2022/08/06 01:27:01;;;;;;;;;;;;;;;18.68;54.34;97439.87;30002;983;1881;-56
2022/08/06 01:27:44;;;;;;;;;;;;;;;18.59;54.12;97445.38;30002;983;1863;-57
2022/08/06 01:28:20;;;;;;;;;;;;;;;18.55;54.38;97441.69;30002;983;1872;-55
2022/08/06 01:29:02;;;;;;;;;;;;;;;18.56;54.46;97437.00;30002;982;1881;-57
2022/08/06 01:29:37;;;;;;;;;;;;;;;18.68;53.81;97432.44;30002;982;1881;-59
2022/08/06 01:30:12;;;;;;;;;;;;;;;18.70;53.53;97438.41;30002;982;1881;-55
2022/08/06 01:30:49;;;;;;;;;;;;;;;18.70;53.79;97432.91;30001;982;1881;-55
2022/08/06 01:31:24;;;;;;;;;;;;;;;18.71;53.08;97423.50;30001;982;1882;-55
2022/08/06 01:32:15;;;;;;;;;;;;;;;18.68;53.28;97426.13;30001;982;1882;-56
2022/08/06 01:32:55;;;;;;;;;;;;;;;18.64;53.58;97428.75;30002;983;1863;-55
2022/08/06 01:33:33;;;;;;;;;;;;;;;18.61;53.77;97437.66;30002;983;1859;-55
2022/08/06 01:34:07;;;;;;;;;;;;;;;18.60;54.37;97441.53;30001;983;1881;-57
2022/08/06 01:34:40;;;;;;;;;;;;;;;18.72;53.25;97438.06;30001;983;1881;-52
2022/08/06 01:35:17;;;;;;;;;;;;;;;18.79;52.76;97421.03;30001;983;1881;-55
2022/08/06 01:35:51;;;;;;;;;;;;;;;18.81;52.58;97427.00;30001;983;1881;-56
2022/08/06 01:36:32;;;;;;;;;;;;;;;18.82;52.53;97426.69;30001;982;1881;-55
2022/08/06 01:37:16;;;;;;;;;;;;;;;18.79;52.80;97426.53;30001;982;1868;-54
2022/08/06 01:37:53;;;;;;;;;;;;;;;18.79;53.07;97429.28;30001;982;1873;-52
2022/08/06 01:38:26;;;;;;;;;;;;;;;18.84;52.18;97420.84;30001;982;1881;-54
2022/08/06 01:38:59;;;;;;;;;;;;;;;18.87;52.19;97428.44;30001;983;1881;-55
2022/08/06 01:39:32;;;;;;;;;;;;;;;18.82;52.78;97421.19;30001;983;1881;-57
2022/08/06 01:40:06;;;;;;;;;;;;;;;18.78;53.02;97430.44;30001;983;1867;-56
2022/08/06 01:40:42;;;;;;;;;;;;;;;18.71;52.93;97426.25;30001;976;1879;-57
2022/08/06 01:41:38;;;;;;;;;;;;;;;18.70;53.32;97429.38;30001;983;1881;-55
2022/08/06 01:42:08;;;;;;;;;;;;;;;18.66;53.53;97429.22;30001;983;1881;-55
2022/08/06 01:42:44;;;;;;;;;;;;;;;18.70;53.07;97429.38;30001;983;1881;-57
2022/08/06 01:43:17;;;;;;;;;;;;;;;18.68;52.87;97420.62;30001;983;1868;-57
2022/08/06 01:43:48;;;;;;;;;;;;;;;18.65;53.48;97422.09;30001;985;1872;-57
2022/08/06 01:44:22;;;;;;;;;;;;;;;18.61;53.52;97437.66;30001;968;1903;-57
2022/08/06 01:44:54;;;;;;;;;;;;;;;18.57;53.46;97433.91;30001;982;1881;-57
2022/08/06 01:45:27;;;;;;;;;;;;;;;18.56;53.94;97432.31;30001;982;1881;-57
2022/08/06 01:45:59;;;;;;;;;;;;;;;18.52;54.48;97434.09;30001;982;1881;-57
2022/08/06 01:46:31;;;;;;;;;;;;;;;18.49;54.63;97440.25;30001;983;1881;-57
2022/08/06 01:47:07;;;;;;;;;;;;;;;18.47;54.56;97437.03;30001;983;1881;-57
2022/08/06 01:47:40;;;;;;;;;;;;;;;18.49;54.74;97444.94;30001;983;1868;-57
2022/08/06 01:48:16;;;;;;;;;;;;;;;18.50;55.21;97452.06;30001;983;1859;-57
2022/08/06 01:48:47;;;;;;;;;;;;;;;18.48;54.67;97449.63;30001;983;1881;-56
2022/08/06 01:49:19;;;;;;;;;;;;;;;18.47;54.70;97445.28;30001;983;1881;-54
2022/08/06 01:49:52;;;;;;;;;;;;;;;18.48;55.21;97444.12;30001;983;1881;-57
2022/08/06 01:50:27;;;;;;;;;;;;;;;18.47;54.91;97442.53;30001;983;1881;-58
2022/08/06 01:51:01;;;;;;;;;;;;;;;18.51;55.16;97443.47;30001;983;1881;-58
2022/08/06 01:51:34;;;;;;;;;;;;;;;18.53;54.28;97446.72;30001;982;1881;-57
2022/08/06 01:52:10;;;;;;;;;;;;;;;18.53;54.42;97446.72;30001;982;1881;-57
2022/08/06 01:52:42;;;;;;;;;;;;;;;18.52;54.80;97445.09;30001;982;1868;-57
2022/08/06 01:53:15;;;;;;;;;;;;;;;18.59;53.74;97439.09;30001;982;1860;-58
2022/08/06 01:53:47;;;;;;;;;;;;;;;18.68;52.94;97426.94;30001;982;1881;-59
2022/08/06 01:54:19;;;;;;;;;;;;;;;18.74;52.95;97425.59;30001;978;1881;-59
2022/08/06 01:54:50;;;;;;;;;;;;;;;18.74;52.60;97428.34;30001;983;1881;-57
2022/08/06 01:55:22;;;;;;;;;;;;;;;18.73;52.84;97423.97;30001;983;1881;-57
2022/08/06 01:55:54;;;;;;;;;;;;;;;18.68;52.86;97426.13;30001;983;1881;-57
2022/08/06 01:56:25;;;;;;;;;;;;;;;18.66;52.88;97423.72;30001;983;1881;-57
2022/08/06 01:56:58;;;;;;;;;;;;;;;18.64;52.68;97423.25;30001;983;1881;-58
2022/08/06 01:57:32;;;;;;;;;;;;;;;18.67;52.53;97424.53;30001;983;1881;-58
2022/08/06 01:58:04;;;;;;;;;;;;;;;18.67;52.55;97425.34;30001;983;1868;-57
2022/08/06 01:58:38;;;;;;;;;;;;;;;18.60;52.95;97422.28;30001;983;1872;-58
2022/08/06 01:59:10;;;;;;;;;;;;;;;18.52;52.95;97434.09;30001;982;1881;-57
2022/08/06 01:59:43;;;;;;;;;;;;;;;18.48;53.33;97426.84;30001;982;1881;-58
2022/08/06 02:00:15;;;;;;;;;;;;;;;18.45;53.69;97431.06;30001;982;1881;-57
2022/08/06 02:00:48;;;;;;;;;;;;;;;18.47;53.37;97436.22;30001;982;1881;-57
2022/08/06 02:01:20;;;;;;;;;;;;;;;18.45;53.40;97433.00;30001;982;1881;-57
2022/08/06 02:01:52;;;;;;;;;;;;;;;18.43;53.77;97438.81;30001;983;1881;-57
2022/08/06 02:02:24;;;;;;;;;;;;;;;18.43;53.72;97441.56;30001;983;1881;-58
2022/08/06 02:02:58;;;;;;;;;;;;;;;18.42;53.31;97445.44;30001;983;1868;-57
2022/08/06 02:03:35;;;;;;;;;;;;;;;18.38;53.34;97439.81;30001;983;1872;-59
2022/08/06 02:04:08;;;;;;;;;;;;;;;18.36;53.83;97435.81;30001;983;1881;-57
2022/08/06 02:04:40;;;;;;;;;;;;;;;18.34;53.67;97443.56;30001;983;1881;-56
2022/08/06 02:05:13;;;;;;;;;;;;;;;18.32;54.13;97440.34;30001;983;1881;-57
2022/08/06 02:05:44;;;;;;;;;;;;;;;18.29;53.98;97441.81;30001;983;1881;-57
2022/08/06 02:06:20;;;;;;;;;;;;;;;18.28;54.48;97442.13;30001;983;1881;-59
2022/08/06 02:06:51;;;;;;;;;;;;;;;18.32;54.50;97445.84;30001;982;1868;-59
2022/08/06 02:07:25;;;;;;;;;;;;;;;18.34;54.58;97443.56;30001;982;1873;-56
2022/08/06 02:07:57;;;;;;;;;;;;;;;18.32;54.52;97441.16;30001;982;1881;-58
2022/08/06 02:08:31;;;;;;;;;;;;;;;18.34;53.78;97438.88;30001;982;1868;-57
2022/08/06 02:09:08;;;;;;;;;;;;;;;18.43;53.34;97431.38;30001;983;1859;-60
2022/08/06 02:09:40;;;;;;;;;;;;;;;18.46;53.16;97437.34;30001;983;1881;-56
2022/08/06 02:10:11;;;;;;;;;;;;;;;18.43;53.29;97438.81;30001;983;1881;-56
2022/08/06 02:10:43;;;;;;;;;;;;;;;18.41;53.54;97438.34;30001;983;1881;-58
2022/08/06 02:11:14;;;;;;;;;;;;;;;18.42;53.58;97434.47;30001;983;1881;-56
2022/08/06 02:11:53;;;;;;;;;;;;;;;18.40;53.94;97447.72;30001;983;1881;-57
2022/08/06 02:12:25;;;;;;;;;;;;;;;18.46;52.87;97435.41;30001;983;1881;-57
2022/08/06 02:12:56;;;;;;;;;;;;;;;18.54;52.74;97442.00;30001;983;1868;-57
2022/08/06 02:13:30;;;;;;;;;;;;;;;18.56;52.45;97446.03;30001;982;1872;-57
2022/08/06 02:14:05;;;;;;;;;;;;;;;18.52;52.97;97438.78;30001;982;1881;-59
2022/08/06 02:14:40;;;;;;;;;;;;;;;18.44;52.82;97448.69;30001;982;1881;-57
2022/08/06 02:15:17;;;;;;;;;;;;;;;18.38;53.42;97441.75;30001;982;1881;-56
2022/08/06 02:15:49;;;;;;;;;;;;;;;18.31;53.36;97439.53;30001;982;1882;-58
2022/08/06 02:16:21;;;;;;;;;;;;;;;18.32;53.49;97440.34;30001;982;1881;-57
2022/08/06 02:16:55;;;;;;;;;;;;;;;18.31;53.46;97438.72;30001;983;1867;-57
2022/08/06 02:17:30;;;;;;;;;;;;;;;18.35;53.14;97434.19;30001;983;1872;-58
2022/08/06 02:18:02;;;;;;;;;;;;;;;18.44;52.58;97434.94;30001;983;1881;-58
2022/08/06 02:18:35;;;;;;;;;;;;;;;18.48;52.82;97438.66;30001;983;1881;-61
2022/08/06 02:19:07;;;;;;;;;;;;;;;18.47;52.76;97437.03;30001;983;1881;-57
2022/08/06 02:19:40;;;;;;;;;;;;;;;18.42;52.98;97432.53;30001;983;1881;-57
2022/08/06 02:20:11;;;;;;;;;;;;;;;18.40;52.78;97442.22;30001;983;1881;-58
2022/08/06 02:20:45;;;;;;;;;;;;;;;18.31;52.98;97439.53;30001;982;1881;-57
2022/08/06 02:21:18;;;;;;;;;;;;;;;18.28;53.01;97442.13;30001;982;1881;-58
2022/08/06 02:21:49;;;;;;;;;;;;;;;18.29;53.43;97446.50;30001;982;1868;-57
2022/08/06 02:22:21;;;;;;;;;;;;;;;18.28;53.30;97444.88;30001;982;1873;-58
2022/08/06 02:22:53;;;;;;;;;;;;;;;18.25;53.86;97451.03;30001;982;1881;-58
2022/08/06 02:23:25;;;;;;;;;;;;;;;18.23;53.57;97448.63;30001;982;1882;-58
2022/08/06 02:23:57;;;;;;;;;;;;;;;18.26;54.01;97455.41;30001;982;1882;-61
2022/08/06 02:24:30;;;;;;;;;;;;;;;18.32;53.63;97454.09;30001;983;1881;-58
2022/08/06 02:25:03;;;;;;;;;;;;;;;18.31;53.51;97452.47;30001;983;1881;-60
2022/08/06 02:25:36;;;;;;;;;;;;;;;18.42;52.59;97446.25;30001;986;1881;-58
2022/08/06 02:26:08;;;;;;;;;;;;;;;18.43;52.93;97452.56;30001;983;1881;-57
2022/08/06 02:26:40;;;;;;;;;;;;;;;18.41;53.06;97452.88;30001;983;1868;-56
2022/08/06 02:27:19;;;;;;;;;;;;;;;18.37;53.09;97445.63;30001;983;1872;-56
2022/08/06 02:27:52;;;;;;;;;;;;;;;18.32;53.01;97451.34;30001;983;1881;-56
2022/08/06 02:28:24;;;;;;;;;;;;;;;18.28;53.26;97455.87;30001;982;1881;-57
2022/08/06 02:28:57;;;;;;;;;;;;;;;18.23;53.34;97453.31;30001;985;1881;-56
2022/08/06 02:29:29;;;;;;;;;;;;;;;18.20;53.47;97449.28;30001;982;1881;-59
2022/08/06 02:30:00;;;;;;;;;;;;;;;18.40;52.62;97436.72;30001;982;1881;-60
2022/08/06 02:30:34;;;;;;;;;;;;;;;18.49;52.33;97445.75;30001;982;1881;-55
2022/08/06 02:31:08;;;;;;;;;;;;;;;18.48;52.31;97438.66;30001;982;1882;-56
2022/08/06 02:31:39;;;;;;;;;;;;;;;18.43;52.57;97441.56;30001;983;1867;-57
2022/08/06 02:32:13;;;;;;;;;;;;;;;18.39;52.63;97435.13;30001;983;1872;-57
2022/08/06 02:32:45;;;;;;;;;;;;;;;18.34;53.85;97443.56;30001;983;1881;-57
2022/08/06 02:33:17;;;;;;;;;;;;;;;18.30;53.59;97442.63;30001;983;1881;-57
2022/08/06 02:33:49;;;;;;;;;;;;;;;18.28;53.44;97436.66;30001;983;1868;-56
2022/08/06 02:34:20;;;;;;;;;;;;;;;18.23;53.80;97443.13;30001;983;1872;-57
2022/08/06 02:34:51;;;;;;;;;;;;;;;18.20;53.76;97453.97;30001;983;1868;-57
2022/08/06 02:35:22;;;;;;;;;;;;;;;18.14;53.75;97447.03;30001;983;1872;-57
2022/08/06 02:36:11;;;;;;;;;;;;;;;18.30;52.76;97437.12;30001;982;1868;-57
2022/08/06 02:36:46;;;;;;;;;;;;;;;18.35;53.05;97443.25;30001;982;1864;-56
2022/08/06 02:37:18;;;;;;;;;;;;;;;18.33;52.91;97447.47;30001;982;1881;-56
2022/08/06 02:38:09;;;;;;;;;;;;;;;18.28;53.09;97444.88;30001;982;1881;-57
2022/08/06 02:38:52;;;;;;;;;;;;;;;18.20;53.66;97448.47;30001;982;1877;-57
2022/08/06 02:39:29;;;;;;;;;;;;;;;18.16;54.08;97447.50;30001;983;1881;-58
2022/08/06 02:40:07;;;;;;;;;;;;;;;18.16;53.90;97444.75;30001;983;1881;-56
2022/08/06 02:40:43;;;;;;;;;;;;;;;18.14;54.26;97445.09;30001;983;1797;-57
2022/08/06 02:41:18;;;;;;;;;;;;;;;18.09;54.13;97453.50;30001;983;1872;-57
2022/08/06 02:42:10;;;;;;;;;;;;;;;18.05;54.24;97453.34;30001;983;1881;-57
2022/08/06 02:42:48;;;;;;;;;;;;;;;18.02;54.63;97462.22;30001;983;1881;-57
2022/08/06 02:43:22;;;;;;;;;;;;;;;18.02;54.65;97464.16;30001;982;1881;-56
2022/08/06 02:43:56;;;;;;;;;;;;;;;17.98;55.10;97458.56;30001;982;1881;-57
2022/08/06 02:44:47;;;;;;;;;;;;;;;17.96;55.25;97465.50;30001;982;1881;-57
2022/08/06 02:45:28;;;;;;;;;;;;;;;17.95;55.59;97458.41;30001;982;1877;-56
2022/08/06 02:46:16;;;;;;;;;;;;;;;17.97;55.33;97467.94;30001;983;1867;-56
2022/08/06 02:46:55;;;;;;;;;;;;;;;17.97;54.28;97456.13;30001;983;1867;-57
2022/08/06 02:47:38;;;;;;;;;;;;;;;17.95;54.31;97453.72;30001;983;1881;-57
2022/08/06 02:48:18;;;;;;;;;;;;;;;17.93;54.77;97455.16;30001;983;1881;-57
2022/08/06 02:49:03;;;;;;;;;;;;;;;17.93;54.64;97461.47;30001;983;1881;-57
2022/08/06 02:49:36;;;;;;;;;;;;;;;17.94;54.78;97465.81;30001;983;1881;-58
2022/08/06 02:50:08;;;;;;;;;;;;;;;18.08;53.62;97452.69;30001;983;1881;-57
2022/08/06 02:50:40;;;;;;;;;;;;;;;18.08;53.89;97452.69;30001;983;1881;-57
2022/08/06 02:51:14;;;;;;;;;;;;;;;18.07;54.07;97455.75;30001;982;1868;-57
2022/08/06 02:51:51;;;;;;;;;;;;;;;18.05;54.51;97453.34;30001;982;1873;-58
2022/08/06 02:52:26;;;;;;;;;;;;;;;18.05;54.35;97464.31;30001;982;1868;-57
2022/08/06 02:53:02;;;;;;;;;;;;;;;18.03;54.41;97461.09;30001;982;1873;-57
2022/08/06 02:53:36;;;;;;;;;;;;;;;18.01;54.63;97465.34;30001;983;1881;-58
2022/08/06 02:54:10;;;;;;;;;;;;;;;17.97;54.62;97467.94;30001;983;1881;-58
2022/08/06 02:54:43;;;;;;;;;;;;;;;17.93;54.73;97464.22;30001;983;1881;-59
2022/08/06 02:55:16;;;;;;;;;;;;;;;17.92;55.57;97470.84;30001;983;1881;-56
2022/08/06 02:55:49;;;;;;;;;;;;;;;18.01;54.39;97463.41;30001;983;1881;-57
2022/08/06 02:56:22;;;;;;;;;;;;;;;18.01;54.36;97457.09;30001;958;1906;-58
2022/08/06 02:56:55;;;;;;;;;;;;;;;18.01;54.56;97468.09;30001;983;1881;-57
2022/08/06 02:57:31;;;;;;;;;;;;;;;17.96;54.62;97465.50;30001;983;1868;-57
2022/08/06 02:58:25;;;;;;;;;;;;;;;17.91;54.66;97463.72;30001;983;1872;-58
2022/08/06 02:58:58;;;;;;;;;;;;;;;17.88;55.36;97469.87;30001;982;1877;-58
2022/08/06 02:59:31;;;;;;;;;;;;;;;17.89;55.41;97466.00;30001;982;1882;-58
2022/08/06 03:00:06;;;;;;;;;;;;;;;17.88;55.87;97469.06;30001;982;1881;-58
2022/08/06 03:00:39;;;;;;;;;;;;;;;17.90;55.26;97462.13;30001;982;1881;-58
2022/08/06 03:01:12;;;;;;;;;;;;;;;17.91;55.33;97458.25;30001;983;1881;-58